sensor_id;sensor_type;location;lat;lon;timestamp;P1;durP1;ratioP1;P2;durP2;ratioP2
61640;SDS011;62201;49.966;8.342;2022-12-17T00:02:17;51.93;;;25.30;;
61640;SDS011;62201;49.966;8.342;2022-12-17T00:05:01;71.10;;;32.13;;
61640;SDS011;62201;49.966;8.342;2022-12-17T00:07:45;65.13;;;28.97;;
61640;SDS011;62201;49.966;8.342;2022-12-17T00:10:29;57.47;;;26.53;;
61640;SDS011;62201;49.966;8.342;2022-12-17T00:13:20;71.67;;;33.00;;
61640;SDS011;62201;49.966;8.342;2022-12-17T00:16:05;49.67;;;24.43;;
61640;SDS011;62201;49.966;8.342;2022-12-17T00:18:53;66.30;;;31.37;;
61640;SDS011;62201;49.966;8.342;2022-12-17T00:21:37;52.53;;;25.10;;
61640;SDS011;62201;49.966;8.342;2022-12-17T00:24:21;48.37;;;25.73;;
61640;SDS011;62201;49.966;8.342;2022-12-17T00:27:05;48.33;;;26.30;;
61640;SDS011;62201;49.966;8.342;2022-12-17T00:29:49;53.40;;;27.77;;
61640;SDS011;62201;49.966;8.342;2022-12-17T00:32:33;54.60;;;28.17;;
61640;SDS011;62201;49.966;8.342;2022-12-17T00:35:17;57.13;;;29.53;;
61640;SDS011;62201;49.966;8.342;2022-12-17T00:38:01;55.80;;;28.47;;
61640;SDS011;62201;49.966;8.342;2022-12-17T00:40:49;84.13;;;39.73;;
61640;SDS011;62201;49.966;8.342;2022-12-17T00:43:37;70.53;;;33.37;;
61640;SDS011;62201;49.966;8.342;2022-12-17T00:46:21;67.43;;;30.77;;
61640;SDS011;62201;49.966;8.342;2022-12-17T00:49:05;68.87;;;33.60;;
61640;SDS011;62201;49.966;8.342;2022-12-17T00:51:49;87.67;;;37.80;;
61640;SDS011;62201;49.966;8.342;2022-12-17T00:54:33;60.37;;;30.27;;
61640;SDS011;62201;49.966;8.342;2022-12-17T00:57:17;104.80;;;43.27;;
61640;SDS011;62201;49.966;8.342;2022-12-17T01:00:01;183.77;;;58.37;;
61640;SDS011;62201;49.966;8.342;2022-12-17T01:02:46;120.00;;;48.43;;
61640;SDS011;62201;49.966;8.342;2022-12-17T01:05:31;55.33;;;27.13;;
61640;SDS011;62201;49.966;8.342;2022-12-17T01:08:15;111.70;;;47.07;;
61640;SDS011;62201;49.966;8.342;2022-12-17T01:11:02;71.87;;;35.33;;
61640;SDS011;62201;49.966;8.342;2022-12-17T01:13:48;69.70;;;32.30;;
61640;SDS011;62201;49.966;8.342;2022-12-17T01:16:32;75.47;;;32.40;;
61640;SDS011;62201;49.966;8.342;2022-12-17T01:19:16;69.70;;;31.17;;
61640;SDS011;62201;49.966;8.342;2022-12-17T01:22:00;59.03;;;27.27;;
61640;SDS011;62201;49.966;8.342;2022-12-17T01:24:44;58.07;;;23.53;;
61640;SDS011;62201;49.966;8.342;2022-12-17T01:27:28;52.53;;;23.73;;
61640;SDS011;62201;49.966;8.342;2022-12-17T01:30:12;50.57;;;24.13;;
61640;SDS011;62201;49.966;8.342;2022-12-17T01:33:00;52.30;;;24.63;;
61640;SDS011;62201;49.966;8.342;2022-12-17T01:35:46;52.13;;;24.27;;
61640;SDS011;62201;49.966;8.342;2022-12-17T01:38:30;56.00;;;25.53;;
61640;SDS011;62201;49.966;8.342;2022-12-17T01:41:14;48.93;;;24.60;;
61640;SDS011;62201;49.966;8.342;2022-12-17T01:43:58;47.87;;;23.83;;
61640;SDS011;62201;49.966;8.342;2022-12-17T01:46:44;52.30;;;23.63;;
61640;SDS011;62201;49.966;8.342;2022-12-17T01:49:33;50.03;;;22.93;;
61640;SDS011;62201;49.966;8.342;2022-12-17T01:52:17;57.63;;;23.97;;
61640;SDS011;62201;49.966;8.342;2022-12-17T01:55:02;46.03;;;22.57;;
61640;SDS011;62201;49.966;8.342;2022-12-17T01:57:48;47.60;;;24.07;;
61640;SDS011;62201;49.966;8.342;2022-12-17T02:00:32;49.93;;;22.60;;
61640;SDS011;62201;49.966;8.342;2022-12-17T02:03:17;50.63;;;23.50;;
61640;SDS011;62201;49.966;8.342;2022-12-17T02:06:13;53.23;;;22.87;;
61640;SDS011;62201;49.966;8.342;2022-12-17T02:14:56;46.47;;;20.67;;
61640;SDS011;62201;49.966;8.342;2022-12-17T02:17:51;49.70;;;22.43;;
61640;SDS011;62201;49.966;8.342;2022-12-17T02:20:38;51.87;;;22.70;;
61640;SDS011;62201;49.966;8.342;2022-12-17T02:23:38;50.07;;;22.93;;
61640;SDS011;62201;49.966;8.342;2022-12-17T02:29:17;52.40;;;23.27;;
61640;SDS011;62201;49.966;8.342;2022-12-17T02:32:04;48.07;;;24.63;;
61640;SDS011;62201;49.966;8.342;2022-12-17T02:34:50;55.07;;;24.50;;
61640;SDS011;62201;49.966;8.342;2022-12-17T02:37:35;57.13;;;25.43;;
61640;SDS011;62201;49.966;8.342;2022-12-17T02:40:19;49.50;;;25.00;;
61640;SDS011;62201;49.966;8.342;2022-12-17T02:43:05;59.57;;;27.37;;
61640;SDS011;62201;49.966;8.342;2022-12-17T02:45:51;53.80;;;24.57;;
61640;SDS011;62201;49.966;8.342;2022-12-17T02:48:36;62.33;;;25.83;;
61640;SDS011;62201;49.966;8.342;2022-12-17T02:51:20;59.70;;;25.00;;
61640;SDS011;62201;49.966;8.342;2022-12-17T02:54:05;52.03;;;22.63;;
61640;SDS011;62201;49.966;8.342;2022-12-17T02:56:50;53.63;;;24.57;;
61640;SDS011;62201;49.966;8.342;2022-12-17T02:59:34;51.40;;;23.03;;
61640;SDS011;62201;49.966;8.342;2022-12-17T03:02:18;48.33;;;23.23;;
61640;SDS011;62201;49.966;8.342;2022-12-17T03:05:02;55.33;;;24.70;;
61640;SDS011;62201;49.966;8.342;2022-12-17T03:07:46;51.20;;;22.53;;
61640;SDS011;62201;49.966;8.342;2022-12-17T03:10:30;51.20;;;22.53;;
61640;SDS011;62201;49.966;8.342;2022-12-17T03:16:24;50.80;;;22.43;;
61640;SDS011;62201;49.966;8.342;2022-12-17T03:19:09;64.60;;;27.93;;
61640;SDS011;62201;49.966;8.342;2022-12-17T03:21:53;62.03;;;26.27;;
61640;SDS011;62201;49.966;8.342;2022-12-17T03:24:38;53.67;;;23.10;;
61640;SDS011;62201;49.966;8.342;2022-12-17T03:27:22;76.30;;;29.23;;
61640;SDS011;62201;49.966;8.342;2022-12-17T03:30:06;60.20;;;24.70;;
61640;SDS011;62201;49.966;8.342;2022-12-17T03:32:50;54.83;;;22.63;;
61640;SDS011;62201;49.966;8.342;2022-12-17T03:35:35;54.10;;;23.20;;
61640;SDS011;62201;49.966;8.342;2022-12-17T03:38:18;54.50;;;23.80;;
61640;SDS011;62201;49.966;8.342;2022-12-17T03:41:02;54.00;;;23.63;;
61640;SDS011;62201;49.966;8.342;2022-12-17T03:43:47;51.20;;;22.40;;
61640;SDS011;62201;49.966;8.342;2022-12-17T03:46:31;50.60;;;22.53;;
61640;SDS011;62201;49.966;8.342;2022-12-17T03:49:15;45.60;;;21.67;;
61640;SDS011;62201;49.966;8.342;2022-12-17T03:51:59;48.40;;;21.40;;
61640;SDS011;62201;49.966;8.342;2022-12-17T03:54:43;43.87;;;21.70;;
61640;SDS011;62201;49.966;8.342;2022-12-17T03:57:27;50.73;;;22.00;;
61640;SDS011;62201;49.966;8.342;2022-12-17T04:00:11;50.53;;;21.63;;
61640;SDS011;62201;49.966;8.342;2022-12-17T04:02:56;48.73;;;22.83;;
61640;SDS011;62201;49.966;8.342;2022-12-17T04:05:40;50.43;;;21.37;;
61640;SDS011;62201;49.966;8.342;2022-12-17T04:08:24;50.13;;;21.70;;
61640;SDS011;62201;49.966;8.342;2022-12-17T04:11:08;50.63;;;21.20;;
61640;SDS011;62201;49.966;8.342;2022-12-17T04:13:52;47.83;;;21.00;;
61640;SDS011;62201;49.966;8.342;2022-12-17T04:16:36;47.40;;;21.80;;
61640;SDS011;62201;49.966;8.342;2022-12-17T04:19:20;47.87;;;20.47;;
61640;SDS011;62201;49.966;8.342;2022-12-17T04:22:04;49.40;;;21.60;;
61640;SDS011;62201;49.966;8.342;2022-12-17T04:24:48;47.50;;;21.37;;
61640;SDS011;62201;49.966;8.342;2022-12-17T04:27:32;47.73;;;21.10;;
61640;SDS011;62201;49.966;8.342;2022-12-17T04:30:16;47.30;;;21.57;;
61640;SDS011;62201;49.966;8.342;2022-12-17T04:33:01;45.20;;;21.37;;
61640;SDS011;62201;49.966;8.342;2022-12-17T04:35:45;47.73;;;21.10;;
61640;SDS011;62201;49.966;8.342;2022-12-17T04:38:29;51.40;;;22.50;;
61640;SDS011;62201;49.966;8.342;2022-12-17T04:41:13;50.27;;;21.33;;
61640;SDS011;62201;49.966;8.342;2022-12-17T04:43:57;46.13;;;20.90;;
61640;SDS011;62201;49.966;8.342;2022-12-17T04:46:41;48.97;;;20.90;;
61640;SDS011;62201;49.966;8.342;2022-12-17T04:49:24;43.50;;;20.47;;
61640;SDS011;62201;49.966;8.342;2022-12-17T04:52:08;45.60;;;20.80;;
61640;SDS011;62201;49.966;8.342;2022-12-17T04:55:12;45.53;;;20.27;;
61640;SDS011;62201;49.966;8.342;2022-12-17T04:58:05;44.90;;;20.07;;
61640;SDS011;62201;49.966;8.342;2022-12-17T05:00:53;44.67;;;19.97;;
61640;SDS011;62201;49.966;8.342;2022-12-17T05:03:38;48.17;;;20.90;;
61640;SDS011;62201;49.966;8.342;2022-12-17T05:06:22;45.77;;;20.43;;
61640;SDS011;62201;49.966;8.342;2022-12-17T05:09:07;47.40;;;21.00;;
61640;SDS011;62201;49.966;8.342;2022-12-17T05:11:51;55.20;;;21.47;;
61640;SDS011;62201;49.966;8.342;2022-12-17T05:14:35;52.13;;;20.20;;
61640;SDS011;62201;49.966;8.342;2022-12-17T05:17:19;46.13;;;21.23;;
61640;SDS011;62201;49.966;8.342;2022-12-17T05:20:03;39.93;;;19.70;;
61640;SDS011;62201;49.966;8.342;2022-12-17T05:22:48;44.40;;;19.87;;
61640;SDS011;62201;49.966;8.342;2022-12-17T05:25:32;42.20;;;19.87;;
61640;SDS011;62201;49.966;8.342;2022-12-17T05:28:16;43.07;;;20.60;;
61640;SDS011;62201;49.966;8.342;2022-12-17T05:31:00;47.93;;;21.03;;
61640;SDS011;62201;49.966;8.342;2022-12-17T05:33:44;56.53;;;22.70;;
61640;SDS011;62201;49.966;8.342;2022-12-17T05:36:28;47.30;;;22.77;;
61640;SDS011;62201;49.966;8.342;2022-12-17T05:39:12;44.77;;;21.53;;
61640;SDS011;62201;49.966;8.342;2022-12-17T05:41:56;43.00;;;21.43;;
61640;SDS011;62201;49.966;8.342;2022-12-17T05:44:40;47.53;;;21.70;;
61640;SDS011;62201;49.966;8.342;2022-12-17T05:47:24;46.70;;;20.93;;
61640;SDS011;62201;49.966;8.342;2022-12-17T05:50:08;42.47;;;19.17;;
61640;SDS011;62201;49.966;8.342;2022-12-17T05:52:52;47.63;;;20.93;;
61640;SDS011;62201;49.966;8.342;2022-12-17T05:55:36;47.87;;;20.37;;
61640;SDS011;62201;49.966;8.342;2022-12-17T05:58:25;47.40;;;20.53;;
61640;SDS011;62201;49.966;8.342;2022-12-17T06:01:09;44.90;;;21.03;;
61640;SDS011;62201;49.966;8.342;2022-12-17T06:03:53;48.03;;;20.97;;
61640;SDS011;62201;49.966;8.342;2022-12-17T06:06:37;49.40;;;20.87;;
61640;SDS011;62201;49.966;8.342;2022-12-17T06:09:21;46.47;;;20.77;;
61640;SDS011;62201;49.966;8.342;2022-12-17T06:12:05;46.80;;;20.50;;
61640;SDS011;62201;49.966;8.342;2022-12-17T06:14:49;45.00;;;20.43;;
61640;SDS011;62201;49.966;8.342;2022-12-17T06:17:33;43.53;;;19.00;;
61640;SDS011;62201;49.966;8.342;2022-12-17T06:20:18;47.27;;;20.20;;
61640;SDS011;62201;49.966;8.342;2022-12-17T06:23:05;38.33;;;17.83;;
61640;SDS011;62201;49.966;8.342;2022-12-17T06:25:53;43.57;;;19.73;;
61640;SDS011;62201;49.966;8.342;2022-12-17T06:28:37;38.43;;;18.57;;
61640;SDS011;62201;49.966;8.342;2022-12-17T06:31:21;39.93;;;18.73;;
61640;SDS011;62201;49.966;8.342;2022-12-17T06:34:06;38.33;;;18.00;;
61640;SDS011;62201;49.966;8.342;2022-12-17T06:36:50;41.00;;;18.83;;
61640;SDS011;62201;49.966;8.342;2022-12-17T06:39:34;37.57;;;17.83;;
61640;SDS011;62201;49.966;8.342;2022-12-17T06:42:18;45.33;;;19.03;;
61640;SDS011;62201;49.966;8.342;2022-12-17T06:45:02;50.03;;;20.60;;
61640;SDS011;62201;49.966;8.342;2022-12-17T06:47:46;52.40;;;21.73;;
61640;SDS011;62201;49.966;8.342;2022-12-17T06:50:30;71.27;;;23.07;;
61640;SDS011;62201;49.966;8.342;2022-12-17T06:53:14;92.73;;;27.50;;
61640;SDS011;62201;49.966;8.342;2022-12-17T06:55:58;82.03;;;27.87;;
61640;SDS011;62201;49.966;8.342;2022-12-17T06:58:42;97.70;;;27.93;;
61640;SDS011;62201;49.966;8.342;2022-12-17T07:01:26;94.07;;;29.67;;
61640;SDS011;62201;49.966;8.342;2022-12-17T07:04:11;87.90;;;30.43;;
61640;SDS011;62201;49.966;8.342;2022-12-17T07:06:55;76.33;;;28.03;;
61640;SDS011;62201;49.966;8.342;2022-12-17T07:09:39;76.00;;;32.17;;
61640;SDS011;62201;49.966;8.342;2022-12-17T07:12:24;92.13;;;37.90;;
61640;SDS011;62201;49.966;8.342;2022-12-17T07:15:07;110.90;;;42.90;;
61640;SDS011;62201;49.966;8.342;2022-12-17T07:17:55;105.57;;;33.27;;
61640;SDS011;62201;49.966;8.342;2022-12-17T07:20:41;85.20;;;32.30;;
61640;SDS011;62201;49.966;8.342;2022-12-17T07:23:25;89.77;;;29.33;;
61640;SDS011;62201;49.966;8.342;2022-12-17T07:26:09;87.50;;;30.17;;
61640;SDS011;62201;49.966;8.342;2022-12-17T07:28:53;107.83;;;36.73;;
61640;SDS011;62201;49.966;8.342;2022-12-17T07:31:56;101.63;;;35.57;;
61640;SDS011;62201;49.966;8.342;2022-12-17T07:34:41;92.93;;;32.47;;
61640;SDS011;62201;49.966;8.342;2022-12-17T07:37:25;107.07;;;36.53;;
61640;SDS011;62201;49.966;8.342;2022-12-17T07:40:09;93.80;;;34.27;;
61640;SDS011;62201;49.966;8.342;2022-12-17T07:42:54;90.27;;;32.53;;
61640;SDS011;62201;49.966;8.342;2022-12-17T07:45:37;86.17;;;31.70;;
61640;SDS011;62201;49.966;8.342;2022-12-17T07:48:21;85.67;;;31.50;;
61640;SDS011;62201;49.966;8.342;2022-12-17T07:51:05;89.67;;;38.13;;
61640;SDS011;62201;49.966;8.342;2022-12-17T07:53:49;80.73;;;30.90;;
61640;SDS011;62201;49.966;8.342;2022-12-17T07:56:33;77.47;;;30.30;;
61640;SDS011;62201;49.966;8.342;2022-12-17T07:59:17;87.47;;;33.13;;
61640;SDS011;62201;49.966;8.342;2022-12-17T08:02:01;72.90;;;28.37;;
61640;SDS011;62201;49.966;8.342;2022-12-17T08:04:45;53.83;;;22.87;;
61640;SDS011;62201;49.966;8.342;2022-12-17T08:07:29;63.50;;;25.10;;
61640;SDS011;62201;49.966;8.342;2022-12-17T08:10:13;63.17;;;25.17;;
61640;SDS011;62201;49.966;8.342;2022-12-17T08:13:01;58.27;;;24.87;;
61640;SDS011;62201;49.966;8.342;2022-12-17T08:15:47;49.73;;;20.93;;
61640;SDS011;62201;49.966;8.342;2022-12-17T08:18:32;41.50;;;17.37;;
61640;SDS011;62201;49.966;8.342;2022-12-17T08:21:16;40.00;;;19.53;;
61640;SDS011;62201;49.966;8.342;2022-12-17T08:24:00;50.20;;;21.80;;
61640;SDS011;62201;49.966;8.342;2022-12-17T08:26:44;55.83;;;22.27;;
61640;SDS011;62201;49.966;8.342;2022-12-17T08:29:28;69.40;;;24.20;;
61640;SDS011;62201;49.966;8.342;2022-12-17T08:32:12;60.53;;;26.13;;
61640;SDS011;62201;49.966;8.342;2022-12-17T08:34:56;58.90;;;25.57;;
61640;SDS011;62201;49.966;8.342;2022-12-17T08:37:40;65.07;;;24.40;;
61640;SDS011;62201;49.966;8.342;2022-12-17T08:40:24;62.83;;;24.10;;
61640;SDS011;62201;49.966;8.342;2022-12-17T08:43:08;69.87;;;23.40;;
61640;SDS011;62201;49.966;8.342;2022-12-17T08:45:52;63.03;;;24.47;;
61640;SDS011;62201;49.966;8.342;2022-12-17T08:48:36;71.50;;;26.70;;
61640;SDS011;62201;49.966;8.342;2022-12-17T08:51:21;73.10;;;27.23;;
61640;SDS011;62201;49.966;8.342;2022-12-17T08:54:05;61.80;;;26.33;;
61640;SDS011;62201;49.966;8.342;2022-12-17T08:56:49;63.47;;;25.23;;
61640;SDS011;62201;49.966;8.342;2022-12-17T08:59:33;60.00;;;25.90;;
61640;SDS011;62201;49.966;8.342;2022-12-17T09:02:17;61.30;;;25.17;;
61640;SDS011;62201;49.966;8.342;2022-12-17T09:05:02;56.80;;;24.73;;
61640;SDS011;62201;49.966;8.342;2022-12-17T09:07:46;73.53;;;30.50;;
61640;SDS011;62201;49.966;8.342;2022-12-17T09:10:30;68.40;;;27.97;;
61640;SDS011;62201;49.966;8.342;2022-12-17T09:13:14;66.60;;;24.70;;
61640;SDS011;62201;49.966;8.342;2022-12-17T09:15:58;70.80;;;28.27;;
61640;SDS011;62201;49.966;8.342;2022-12-17T09:18:42;61.33;;;24.73;;
61640;SDS011;62201;49.966;8.342;2022-12-17T09:21:27;66.77;;;27.77;;
61640;SDS011;62201;49.966;8.342;2022-12-17T09:24:11;66.67;;;26.60;;
61640;SDS011;62201;49.966;8.342;2022-12-17T09:26:56;62.57;;;24.43;;
61640;SDS011;62201;49.966;8.342;2022-12-17T09:29:40;61.00;;;23.57;;
61640;SDS011;62201;49.966;8.342;2022-12-17T09:32:24;48.80;;;17.47;;
61640;SDS011;62201;49.966;8.342;2022-12-17T09:35:08;56.50;;;23.07;;
61640;SDS011;62201;49.966;8.342;2022-12-17T09:37:55;58.93;;;23.80;;
61640;SDS011;62201;49.966;8.342;2022-12-17T09:40:40;57.37;;;24.87;;
61640;SDS011;62201;49.966;8.342;2022-12-17T09:46:27;57.03;;;21.63;;
61640;SDS011;62201;49.966;8.342;2022-12-17T09:49:21;48.17;;;22.00;;
61640;SDS011;62201;49.966;8.342;2022-12-17T09:52:27;51.93;;;21.60;;
61640;SDS011;62201;49.966;8.342;2022-12-17T09:55:16;47.87;;;19.57;;
61640;SDS011;62201;49.966;8.342;2022-12-17T09:58:08;61.80;;;25.03;;
61640;SDS011;62201;49.966;8.342;2022-12-17T10:01:01;60.53;;;25.87;;
61640;SDS011;62201;49.966;8.342;2022-12-17T10:03:46;75.33;;;29.30;;
61640;SDS011;62201;49.966;8.342;2022-12-17T10:06:30;61.93;;;26.73;;
61640;SDS011;62201;49.966;8.342;2022-12-17T10:09:16;56.40;;;24.97;;
61640;SDS011;62201;49.966;8.342;2022-12-17T10:12:07;56.10;;;23.87;;
61640;SDS011;62201;49.966;8.342;2022-12-17T10:15:01;56.53;;;23.30;;
61640;SDS011;62201;49.966;8.342;2022-12-17T10:17:46;53.43;;;23.57;;
61640;SDS011;62201;49.966;8.342;2022-12-17T10:20:52;48.63;;;22.63;;
61640;SDS011;62201;49.966;8.342;2022-12-17T10:23:39;48.13;;;22.83;;
61640;SDS011;62201;49.966;8.342;2022-12-17T10:26:28;46.20;;;22.73;;
61640;SDS011;62201;49.966;8.342;2022-12-17T10:29:15;50.43;;;22.57;;
61640;SDS011;62201;49.966;8.342;2022-12-17T10:32:07;49.97;;;22.97;;
61640;SDS011;62201;49.966;8.342;2022-12-17T10:35:17;49.63;;;23.00;;
61640;SDS011;62201;49.966;8.342;2022-12-17T10:38:22;53.00;;;21.63;;
61640;SDS011;62201;49.966;8.342;2022-12-17T10:41:41;57.73;;;24.23;;
61640;SDS011;62201;49.966;8.342;2022-12-17T10:44:19;56.70;;;24.43;;
61640;SDS011;62201;49.966;8.342;2022-12-17T10:47:16;53.60;;;24.77;;
61640;SDS011;62201;49.966;8.342;2022-12-17T10:50:11;51.53;;;23.60;;
61640;SDS011;62201;49.966;8.342;2022-12-17T10:53:19;49.70;;;22.43;;
61640;SDS011;62201;49.966;8.342;2022-12-17T10:56:05;54.20;;;24.63;;
61640;SDS011;62201;49.966;8.342;2022-12-17T10:58:51;59.87;;;25.83;;
61640;SDS011;62201;49.966;8.342;2022-12-17T11:01:37;47.77;;;23.40;;
61640;SDS011;62201;49.966;8.342;2022-12-17T11:04:27;50.30;;;24.40;;
61640;SDS011;62201;49.966;8.342;2022-12-17T11:07:23;47.80;;;23.47;;
61640;SDS011;62201;49.966;8.342;2022-12-17T11:10:15;60.60;;;27.60;;
61640;SDS011;62201;49.966;8.342;2022-12-17T11:13:07;56.27;;;28.17;;
61640;SDS011;62201;49.966;8.342;2022-12-17T11:15:57;56.60;;;25.70;;
61640;SDS011;62201;49.966;8.342;2022-12-17T11:21:42;55.87;;;24.43;;
61640;SDS011;62201;49.966;8.342;2022-12-17T11:27:28;51.23;;;24.93;;
61640;SDS011;62201;49.966;8.342;2022-12-17T11:30:17;55.03;;;23.83;;
61640;SDS011;62201;49.966;8.342;2022-12-17T11:36:30;56.87;;;25.27;;
61640;SDS011;62201;49.966;8.342;2022-12-17T11:39:29;60.57;;;27.17;;
61640;SDS011;62201;49.966;8.342;2022-12-17T11:45:38;59.93;;;26.83;;
61640;SDS011;62201;49.966;8.342;2022-12-17T11:48:45;56.80;;;27.53;;
61640;SDS011;62201;49.966;8.342;2022-12-17T12:01:32;67.27;;;27.83;;
61640;SDS011;62201;49.966;8.342;2022-12-17T12:10:39;75.47;;;32.30;;
61640;SDS011;62201;49.966;8.342;2022-12-17T12:17:04;78.33;;;34.50;;
61640;SDS011;62201;49.966;8.342;2022-12-17T12:26:13;77.77;;;34.70;;
61640;SDS011;62201;49.966;8.342;2022-12-17T12:29:04;60.50;;;28.70;;
61640;SDS011;62201;49.966;8.342;2022-12-17T12:35:23;65.00;;;30.60;;
61640;SDS011;62201;49.966;8.342;2022-12-17T12:38:10;58.77;;;27.87;;
61640;SDS011;62201;49.966;8.342;2022-12-17T12:41:10;51.00;;;25.33;;
61640;SDS011;62201;49.966;8.342;2022-12-17T12:44:05;59.80;;;27.07;;
61640;SDS011;62201;49.966;8.342;2022-12-17T12:46:59;52.17;;;24.17;;
61640;SDS011;62201;49.966;8.342;2022-12-17T12:49:53;51.90;;;25.20;;
61640;SDS011;62201;49.966;8.342;2022-12-17T12:52:47;55.67;;;25.33;;
61640;SDS011;62201;49.966;8.342;2022-12-17T12:55:38;53.07;;;25.83;;
61640;SDS011;62201;49.966;8.342;2022-12-17T12:58:31;45.13;;;23.53;;
61640;SDS011;62201;49.966;8.342;2022-12-17T13:01:16;55.45;;;26.90;;
61640;SDS011;62201;49.966;8.342;2022-12-17T13:04:01;55.40;;;26.83;;
61640;SDS011;62201;49.966;8.342;2022-12-17T13:06:59;62.50;;;28.27;;
61640;SDS011;62201;49.966;8.342;2022-12-17T13:19:45;51.97;;;26.67;;
61640;SDS011;62201;49.966;8.342;2022-12-17T13:24:48;57.00;;;28.50;;
61640;SDS011;62201;49.966;8.342;2022-12-17T13:30:10;62.13;;;29.50;;
61640;SDS011;62201;49.966;8.342;2022-12-17T13:35:20;55.83;;;27.87;;
61640;SDS011;62201;49.966;8.342;2022-12-17T13:38:09;59.43;;;28.70;;
61640;SDS011;62201;49.966;8.342;2022-12-17T13:43:30;54.17;;;27.60;;
61640;SDS011;62201;49.966;8.342;2022-12-17T13:45:57;46.20;;;25.73;;
61640;SDS011;62201;49.966;8.342;2022-12-17T13:48:24;55.10;;;26.50;;
61640;SDS011;62201;49.966;8.342;2022-12-17T13:50:52;55.40;;;26.90;;
61640;SDS011;62201;49.966;8.342;2022-12-17T13:53:25;61.53;;;27.20;;
61640;SDS011;62201;49.966;8.342;2022-12-17T13:55:52;53.03;;;26.57;;
61640;SDS011;62201;49.966;8.342;2022-12-17T13:58:24;53.87;;;26.77;;
61640;SDS011;62201;49.966;8.342;2022-12-17T14:00:51;55.20;;;27.27;;
61640;SDS011;62201;49.966;8.342;2022-12-17T14:03:36;52.57;;;25.50;;
61640;SDS011;62201;49.966;8.342;2022-12-17T14:06:06;54.70;;;26.87;;
61640;SDS011;62201;49.966;8.342;2022-12-17T14:08:34;53.30;;;24.37;;
61640;SDS011;62201;49.966;8.342;2022-12-17T14:11:00;55.00;;;25.87;;
61640;SDS011;62201;49.966;8.342;2022-12-17T14:13:45;56.67;;;26.93;;
61640;SDS011;62201;49.966;8.342;2022-12-17T14:16:16;58.93;;;27.10;;
61640;SDS011;62201;49.966;8.342;2022-12-17T14:18:47;60.87;;;29.13;;
61640;SDS011;62201;49.966;8.342;2022-12-17T14:21:15;55.20;;;26.48;;
61640;SDS011;62201;49.966;8.342;2022-12-17T14:23:41;56.73;;;27.53;;
61640;SDS011;62201;49.966;8.342;2022-12-17T14:26:10;59.03;;;29.50;;
61640;SDS011;62201;49.966;8.342;2022-12-17T14:28:44;68.17;;;31.17;;
61640;SDS011;62201;49.966;8.342;2022-12-17T14:33:40;60.57;;;30.57;;
61640;SDS011;62201;49.966;8.342;2022-12-17T14:38:52;68.80;;;32.60;;
61640;SDS011;62201;49.966;8.342;2022-12-17T14:41:19;69.50;;;33.80;;
61640;SDS011;62201;49.966;8.342;2022-12-17T14:44:04;69.73;;;32.03;;
61640;SDS011;62201;49.966;8.342;2022-12-17T14:46:30;71.73;;;34.63;;
61640;SDS011;62201;49.966;8.342;2022-12-17T14:48:58;64.93;;;32.03;;
61640;SDS011;62201;49.966;8.342;2022-12-17T14:54:06;77.20;;;34.70;;
61640;SDS011;62201;49.966;8.342;2022-12-17T14:56:41;71.53;;;33.53;;
61640;SDS011;62201;49.966;8.342;2022-12-17T14:59:29;74.57;;;34.47;;
61640;SDS011;62201;49.966;8.342;2022-12-17T15:01:58;89.70;;;39.70;;
61640;SDS011;62201;49.966;8.342;2022-12-17T15:04:44;88.73;;;40.80;;
61640;SDS011;62201;49.966;8.342;2022-12-17T15:07:12;124.17;;;50.43;;
61640;SDS011;62201;49.966;8.342;2022-12-17T15:09:39;285.07;;;105.17;;
61640;SDS011;62201;49.966;8.342;2022-12-17T15:12:06;163.97;;;65.93;;
61640;SDS011;62201;49.966;8.342;2022-12-17T15:14:31;95.00;;;42.77;;
61640;SDS011;62201;49.966;8.342;2022-12-17T15:16:56;69.27;;;34.37;;
61640;SDS011;62201;49.966;8.342;2022-12-17T15:19:23;71.97;;;33.93;;
61640;SDS011;62201;49.966;8.342;2022-12-17T15:21:49;70.67;;;32.83;;
61640;SDS011;62201;49.966;8.342;2022-12-17T15:24:16;69.20;;;33.00;;
61640;SDS011;62201;49.966;8.342;2022-12-17T15:26:46;66.13;;;34.07;;
61640;SDS011;62201;49.966;8.342;2022-12-17T15:29:12;70.13;;;33.93;;
61640;SDS011;62201;49.966;8.342;2022-12-17T15:31:38;66.43;;;29.77;;
61640;SDS011;62201;49.966;8.342;2022-12-17T15:34:04;78.27;;;33.70;;
61640;SDS011;62201;49.966;8.342;2022-12-17T15:36:30;68.40;;;35.43;;
61640;SDS011;62201;49.966;8.342;2022-12-17T15:38:56;75.20;;;36.47;;
61640;SDS011;62201;49.966;8.342;2022-12-17T15:41:23;64.77;;;34.40;;
61640;SDS011;62201;49.966;8.342;2022-12-17T15:44:07;70.43;;;33.87;;
61640;SDS011;62201;49.966;8.342;2022-12-17T15:46:32;72.10;;;34.37;;
61640;SDS011;62201;49.966;8.342;2022-12-17T15:48:58;72.37;;;35.27;;
61640;SDS011;62201;49.966;8.342;2022-12-17T15:51:23;79.03;;;35.27;;
61640;SDS011;62201;49.966;8.342;2022-12-17T15:53:49;72.17;;;35.17;;
61640;SDS011;62201;49.966;8.342;2022-12-17T15:56:19;86.00;;;40.70;;
61640;SDS011;62201;49.966;8.342;2022-12-17T15:58:46;80.80;;;38.97;;
61640;SDS011;62201;49.966;8.342;2022-12-17T16:01:12;83.20;;;40.67;;
61640;SDS011;62201;49.966;8.342;2022-12-17T16:03:37;92.13;;;41.93;;
61640;SDS011;62201;49.966;8.342;2022-12-17T16:06:03;83.37;;;38.20;;
61640;SDS011;62201;49.966;8.342;2022-12-17T16:08:28;83.17;;;40.60;;
61640;SDS011;62201;49.966;8.342;2022-12-17T16:10:53;75.17;;;36.07;;
61640;SDS011;62201;49.966;8.342;2022-12-17T16:13:19;77.87;;;37.13;;
61640;SDS011;62201;49.966;8.342;2022-12-17T16:16:03;81.43;;;35.97;;
61640;SDS011;62201;49.966;8.342;2022-12-17T16:18:30;78.73;;;35.37;;
61640;SDS011;62201;49.966;8.342;2022-12-17T16:21:02;76.03;;;35.30;;
61640;SDS011;62201;49.966;8.342;2022-12-17T16:25:58;72.40;;;35.47;;
61640;SDS011;62201;49.966;8.342;2022-12-17T16:28:25;77.03;;;35.03;;
61640;SDS011;62201;49.966;8.342;2022-12-17T16:33:31;82.97;;;37.57;;
61640;SDS011;62201;49.966;8.342;2022-12-17T16:35:57;92.80;;;41.80;;
61640;SDS011;62201;49.966;8.342;2022-12-17T16:38:23;86.13;;;38.33;;
61640;SDS011;62201;49.966;8.342;2022-12-17T16:40:48;82.80;;;36.73;;
61640;SDS011;62201;49.966;8.342;2022-12-17T16:43:14;87.70;;;39.13;;
61640;SDS011;62201;49.966;8.342;2022-12-17T16:45:49;85.23;;;38.97;;
61640;SDS011;62201;49.966;8.342;2022-12-17T16:48:16;85.77;;;38.57;;
61640;SDS011;62201;49.966;8.342;2022-12-17T16:50:43;82.23;;;36.50;;
61640;SDS011;62201;49.966;8.342;2022-12-17T16:53:09;79.77;;;34.67;;
61640;SDS011;62201;49.966;8.342;2022-12-17T16:55:42;88.77;;;35.60;;
61640;SDS011;62201;49.966;8.342;2022-12-17T16:58:08;77.43;;;35.67;;
61640;SDS011;62201;49.966;8.342;2022-12-17T17:00:34;77.37;;;35.37;;
61640;SDS011;62201;49.966;8.342;2022-12-17T17:03:00;79.47;;;34.83;;
61640;SDS011;62201;49.966;8.342;2022-12-17T17:05:25;84.63;;;35.33;;
61640;SDS011;62201;49.966;8.342;2022-12-17T17:07:51;80.60;;;34.50;;
61640;SDS011;62201;49.966;8.342;2022-12-17T17:10:16;80.57;;;35.07;;
61640;SDS011;62201;49.966;8.342;2022-12-17T17:12:42;61.17;;;23.93;;
61640;SDS011;62201;49.966;8.342;2022-12-17T17:15:07;75.03;;;31.93;;
61640;SDS011;62201;49.966;8.342;2022-12-17T17:17:33;92.93;;;34.77;;
61640;SDS011;62201;49.966;8.342;2022-12-17T17:19:58;75.20;;;31.70;;